sensor_id;sensor_type;location;lat;lon;timestamp;P1;durP1;ratioP1;P2;durP2;ratioP2
5880;SDS011;2966;52.598;10.928;2022-12-18T00:02:04;16.30;;;10.13;;
5880;SDS011;2966;52.598;10.928;2022-12-18T00:04:31;14.07;;;12.40;;
5880;SDS011;2966;52.598;10.928;2022-12-18T00:06:58;21.57;;;11.23;;
5880;SDS011;2966;52.598;10.928;2022-12-18T00:09:24;18.83;;;13.03;;
5880;SDS011;2966;52.598;10.928;2022-12-18T00:11:51;24.37;;;12.67;;
5880;SDS011;2966;52.598;10.928;2022-12-18T00:14:19;20.33;;;12.80;;
5880;SDS011;2966;52.598;10.928;2022-12-18T00:16:46;14.50;;;13.10;;
5880;SDS011;2966;52.598;10.928;2022-12-18T00:19:13;22.00;;;14.10;;
5880;SDS011;2966;52.598;10.928;2022-12-18T00:21:41;45.13;;;15.53;;
5880;SDS011;2966;52.598;10.928;2022-12-18T00:24:08;18.93;;;16.97;;
5880;SDS011;2966;52.598;10.928;2022-12-18T00:26:36;23.53;;;20.17;;
5880;SDS011;2966;52.598;10.928;2022-12-18T00:29:04;16.80;;;12.33;;
5880;SDS011;2966;52.598;10.928;2022-12-18T00:31:34;11.10;;;10.00;;
5880;SDS011;2966;52.598;10.928;2022-12-18T00:34:01;19.67;;;14.90;;
5880;SDS011;2966;52.598;10.928;2022-12-18T00:36:30;38.40;;;13.40;;
5880;SDS011;2966;52.598;10.928;2022-12-18T00:38:58;21.43;;;8.90;;
5880;SDS011;2966;52.598;10.928;2022-12-18T00:41:27;14.23;;;13.00;;
5880;SDS011;2966;52.598;10.928;2022-12-18T00:44:12;19.20;;;12.63;;
5880;SDS011;2966;52.598;10.928;2022-12-18T00:46:41;12.40;;;11.27;;
5880;SDS011;2966;52.598;10.928;2022-12-18T00:49:09;20.87;;;11.17;;
5880;SDS011;2966;52.598;10.928;2022-12-18T00:51:36;17.80;;;12.93;;
5880;SDS011;2966;52.598;10.928;2022-12-18T00:54:03;41.73;;;18.00;;
5880;SDS011;2966;52.598;10.928;2022-12-18T00:56:30;13.77;;;10.43;;
5880;SDS011;2966;52.598;10.928;2022-12-18T00:58:57;33.37;;;16.23;;
5880;SDS011;2966;52.598;10.928;2022-12-18T01:01:24;18.13;;;12.00;;
5880;SDS011;2966;52.598;10.928;2022-12-18T01:03:52;20.43;;;17.43;;
5880;SDS011;2966;52.598;10.928;2022-12-18T01:06:18;20.13;;;10.57;;
5880;SDS011;2966;52.598;10.928;2022-12-18T01:08:45;25.53;;;11.40;;
5880;SDS011;2966;52.598;10.928;2022-12-18T01:11:13;18.20;;;9.30;;
5880;SDS011;2966;52.598;10.928;2022-12-18T01:13:42;19.33;;;12.27;;
5880;SDS011;2966;52.598;10.928;2022-12-18T01:16:10;16.50;;;9.50;;
5880;SDS011;2966;52.598;10.928;2022-12-18T01:18:38;18.83;;;14.27;;
5880;SDS011;2966;52.598;10.928;2022-12-18T01:21:08;22.43;;;13.17;;
5880;SDS011;2966;52.598;10.928;2022-12-18T01:23:35;12.07;;;10.73;;
5880;SDS011;2966;52.598;10.928;2022-12-18T01:26:06;17.40;;;9.40;;
5880;SDS011;2966;52.598;10.928;2022-12-18T01:28:34;29.20;;;11.43;;
5880;SDS011;2966;52.598;10.928;2022-12-18T01:31:15;14.67;;;8.17;;
5880;SDS011;2966;52.598;10.928;2022-12-18T01:33:44;14.87;;;10.97;;
5880;SDS011;2966;52.598;10.928;2022-12-18T01:36:17;18.10;;;12.53;;
5880;SDS011;2966;52.598;10.928;2022-12-18T01:38:45;17.40;;;11.10;;
5880;SDS011;2966;52.598;10.928;2022-12-18T01:41:13;13.43;;;9.60;;
5880;SDS011;2966;52.598;10.928;2022-12-18T01:43:46;10.93;;;9.80;;
5880;SDS011;2966;52.598;10.928;2022-12-18T01:46:18;29.33;;;12.57;;
5880;SDS011;2966;52.598;10.928;2022-12-18T01:48:48;11.77;;;10.73;;
5880;SDS011;2966;52.598;10.928;2022-12-18T01:51:18;14.53;;;9.50;;
5880;SDS011;2966;52.598;10.928;2022-12-18T01:53:45;10.33;;;7.20;;
5880;SDS011;2966;52.598;10.928;2022-12-18T01:56:13;21.70;;;13.13;;
5880;SDS011;2966;52.598;10.928;2022-12-18T01:58:46;23.43;;;10.07;;
5880;SDS011;2966;52.598;10.928;2022-12-18T02:01:19;17.90;;;11.73;;
5880;SDS011;2966;52.598;10.928;2022-12-18T02:03:48;28.13;;;11.97;;
5880;SDS011;2966;52.598;10.928;2022-12-18T02:06:16;15.70;;;8.57;;
5880;SDS011;2966;52.598;10.928;2022-12-18T02:08:49;12.97;;;11.00;;
5880;SDS011;2966;52.598;10.928;2022-12-18T02:11:27;23.73;;;11.07;;
5880;SDS011;2966;52.598;10.928;2022-12-18T02:14:04;20.57;;;11.83;;
5880;SDS011;2966;52.598;10.928;2022-12-18T02:16:43;19.27;;;9.47;;
5880;SDS011;2966;52.598;10.928;2022-12-18T02:19:16;16.40;;;10.30;;
5880;SDS011;2966;52.598;10.928;2022-12-18T02:22:05;20.63;;;10.73;;
5880;SDS011;2966;52.598;10.928;2022-12-18T02:24:42;16.37;;;13.57;;
5880;SDS011;2966;52.598;10.928;2022-12-18T02:27:21;13.37;;;9.57;;
5880;SDS011;2966;52.598;10.928;2022-12-18T02:29:50;15.40;;;10.73;;
5880;SDS011;2966;52.598;10.928;2022-12-18T02:32:20;29.60;;;12.60;;
5880;SDS011;2966;52.598;10.928;2022-12-18T02:34:50;24.93;;;9.50;;
5880;SDS011;2966;52.598;10.928;2022-12-18T02:37:19;22.30;;;14.93;;
5880;SDS011;2966;52.598;10.928;2022-12-18T02:39:48;24.43;;;9.00;;
5880;SDS011;2966;52.598;10.928;2022-12-18T02:42:17;13.10;;;6.93;;
5880;SDS011;2966;52.598;10.928;2022-12-18T02:44:47;19.47;;;9.63;;
5880;SDS011;2966;52.598;10.928;2022-12-18T02:47:16;17.97;;;12.53;;
5880;SDS011;2966;52.598;10.928;2022-12-18T02:49:48;20.67;;;14.40;;
5880;SDS011;2966;52.598;10.928;2022-12-18T02:52:24;13.47;;;7.67;;
5880;SDS011;2966;52.598;10.928;2022-12-18T02:54:57;18.17;;;8.57;;
5880;SDS011;2966;52.598;10.928;2022-12-18T02:57:33;7.10;;;6.60;;
5880;SDS011;2966;52.598;10.928;2022-12-18T03:00:05;12.63;;;10.50;;
5880;SDS011;2966;52.598;10.928;2022-12-18T03:02:36;12.30;;;7.50;;
5880;SDS011;2966;52.598;10.928;2022-12-18T03:05:09;15.00;;;12.57;;
5880;SDS011;2966;52.598;10.928;2022-12-18T03:07:41;16.37;;;7.27;;
5880;SDS011;2966;52.598;10.928;2022-12-18T03:10:13;10.70;;;9.80;;
5880;SDS011;2966;52.598;10.928;2022-12-18T03:12:43;21.63;;;10.87;;
5880;SDS011;2966;52.598;10.928;2022-12-18T03:15:16;7.57;;;6.80;;
5880;SDS011;2966;52.598;10.928;2022-12-18T03:17:48;13.07;;;8.67;;
5880;SDS011;2966;52.598;10.928;2022-12-18T03:20:19;15.77;;;8.90;;
5880;SDS011;2966;52.598;10.928;2022-12-18T03:22:49;11.13;;;9.80;;
5880;SDS011;2966;52.598;10.928;2022-12-18T03:25:19;12.67;;;9.87;;
5880;SDS011;2966;52.598;10.928;2022-12-18T03:27:49;11.37;;;10.27;;
5880;SDS011;2966;52.598;10.928;2022-12-18T03:30:21;23.00;;;13.97;;
5880;SDS011;2966;52.598;10.928;2022-12-18T03:32:48;12.70;;;9.17;;
5880;SDS011;2966;52.598;10.928;2022-12-18T03:35:21;9.10;;;8.20;;
5880;SDS011;2966;52.598;10.928;2022-12-18T03:37:50;14.40;;;11.40;;
5880;SDS011;2966;52.598;10.928;2022-12-18T03:40:18;19.50;;;11.57;;
5880;SDS011;2966;52.598;10.928;2022-12-18T03:42:49;24.10;;;10.87;;
5880;SDS011;2966;52.598;10.928;2022-12-18T03:45:22;8.30;;;7.47;;
5880;SDS011;2966;52.598;10.928;2022-12-18T03:47:55;10.63;;;9.43;;
5880;SDS011;2966;52.598;10.928;2022-12-18T03:50:27;16.30;;;11.67;;
5880;SDS011;2966;52.598;10.928;2022-12-18T03:53:06;14.40;;;8.37;;
5880;SDS011;2966;52.598;10.928;2022-12-18T03:55:43;11.63;;;8.60;;
5880;SDS011;2966;52.598;10.928;2022-12-18T03:58:11;21.33;;;7.67;;
5880;SDS011;2966;52.598;10.928;2022-12-18T04:00:46;16.40;;;9.70;;
5880;SDS011;2966;52.598;10.928;2022-12-18T04:03:16;11.00;;;9.20;;
5880;SDS011;2966;52.598;10.928;2022-12-18T04:05:45;6.80;;;5.90;;
5880;SDS011;2966;52.598;10.928;2022-12-18T04:08:16;13.10;;;8.37;;
5880;SDS011;2966;52.598;10.928;2022-12-18T04:10:44;20.50;;;8.63;;
5880;SDS011;2966;52.598;10.928;2022-12-18T04:13:11;10.77;;;6.20;;
5880;SDS011;2966;52.598;10.928;2022-12-18T04:15:37;16.67;;;7.97;;
5880;SDS011;2966;52.598;10.928;2022-12-18T04:18:07;11.10;;;7.00;;
5880;SDS011;2966;52.598;10.928;2022-12-18T04:20:34;17.07;;;13.07;;
5880;SDS011;2966;52.598;10.928;2022-12-18T04:23:01;13.43;;;9.10;;
5880;SDS011;2966;52.598;10.928;2022-12-18T04:25:28;15.83;;;9.80;;
5880;SDS011;2966;52.598;10.928;2022-12-18T04:27:55;11.47;;;9.40;;
5880;SDS011;2966;52.598;10.928;2022-12-18T04:30:22;12.63;;;6.93;;
5880;SDS011;2966;52.598;10.928;2022-12-18T04:32:49;16.70;;;9.27;;
5880;SDS011;2966;52.598;10.928;2022-12-18T04:35:17;19.10;;;8.60;;
5880;SDS011;2966;52.598;10.928;2022-12-18T04:37:44;7.40;;;6.60;;
5880;SDS011;2966;52.598;10.928;2022-12-18T04:40:11;13.53;;;6.97;;
5880;SDS011;2966;52.598;10.928;2022-12-18T04:42:38;11.50;;;10.10;;
5880;SDS011;2966;52.598;10.928;2022-12-18T04:45:06;19.23;;;7.13;;
5880;SDS011;2966;52.598;10.928;2022-12-18T04:47:33;18.20;;;12.53;;
5880;SDS011;2966;52.598;10.928;2022-12-18T04:50:00;9.47;;;8.57;;
5880;SDS011;2966;52.598;10.928;2022-12-18T04:52:28;15.33;;;7.83;;
5880;SDS011;2966;52.598;10.928;2022-12-18T04:54:55;14.30;;;9.70;;
5880;SDS011;2966;52.598;10.928;2022-12-18T04:57:22;12.33;;;11.20;;
5880;SDS011;2966;52.598;10.928;2022-12-18T04:59:49;12.70;;;7.40;;
5880;SDS011;2966;52.598;10.928;2022-12-18T05:02:15;9.77;;;8.87;;
5880;SDS011;2966;52.598;10.928;2022-12-18T05:04:42;19.03;;;8.83;;
5880;SDS011;2966;52.598;10.928;2022-12-18T05:07:09;11.40;;;8.20;;
5880;SDS011;2966;52.598;10.928;2022-12-18T05:09:37;37.03;;;9.27;;
5880;SDS011;2966;52.598;10.928;2022-12-18T05:12:04;14.30;;;8.33;;
5880;SDS011;2966;52.598;10.928;2022-12-18T05:14:31;17.53;;;14.20;;
5880;SDS011;2966;52.598;10.928;2022-12-18T05:16:58;36.03;;;16.37;;
5880;SDS011;2966;52.598;10.928;2022-12-18T05:19:25;40.67;;;20.27;;
5880;SDS011;2966;52.598;10.928;2022-12-18T05:21:52;24.77;;;12.13;;
5880;SDS011;2966;52.598;10.928;2022-12-18T05:24:18;17.50;;;11.27;;
5880;SDS011;2966;52.598;10.928;2022-12-18T05:26:47;28.83;;;11.93;;
5880;SDS011;2966;52.598;10.928;2022-12-18T05:29:13;10.43;;;6.77;;
5880;SDS011;2966;52.598;10.928;2022-12-18T05:31:40;16.60;;;8.60;;
5880;SDS011;2966;52.598;10.928;2022-12-18T05:34:07;10.07;;;7.80;;
5880;SDS011;2966;52.598;10.928;2022-12-18T05:36:34;24.23;;;14.37;;
5880;SDS011;2966;52.598;10.928;2022-12-18T05:39:01;18.83;;;11.53;;
5880;SDS011;2966;52.598;10.928;2022-12-18T05:41:28;22.03;;;12.43;;
5880;SDS011;2966;52.598;10.928;2022-12-18T05:43:56;13.70;;;9.80;;
5880;SDS011;2966;52.598;10.928;2022-12-18T05:46:23;9.10;;;7.20;;
5880;SDS011;2966;52.598;10.928;2022-12-18T05:48:51;10.20;;;8.70;;
5880;SDS011;2966;52.598;10.928;2022-12-18T05:51:19;10.93;;;9.00;;
5880;SDS011;2966;52.598;10.928;2022-12-18T05:53:47;9.83;;;6.37;;
5880;SDS011;2966;52.598;10.928;2022-12-18T05:56:16;8.20;;;5.27;;
5880;SDS011;2966;52.598;10.928;2022-12-18T05:58:44;27.03;;;13.03;;
5880;SDS011;2966;52.598;10.928;2022-12-18T06:01:15;18.47;;;12.90;;
5880;SDS011;2966;52.598;10.928;2022-12-18T06:03:43;9.90;;;7.40;;
5880;SDS011;2966;52.598;10.928;2022-12-18T06:06:14;9.67;;;7.40;;
5880;SDS011;2966;52.598;10.928;2022-12-18T06:08:41;10.90;;;9.13;;
5880;SDS011;2966;52.598;10.928;2022-12-18T06:11:08;16.23;;;12.37;;
5880;SDS011;2966;52.598;10.928;2022-12-18T06:13:36;15.90;;;8.63;;
5880;SDS011;2966;52.598;10.928;2022-12-18T06:16:03;12.13;;;10.83;;
5880;SDS011;2966;52.598;10.928;2022-12-18T06:18:32;30.23;;;6.20;;
5880;SDS011;2966;52.598;10.928;2022-12-18T06:21:01;11.57;;;10.37;;
5880;SDS011;2966;52.598;10.928;2022-12-18T06:23:28;12.20;;;9.03;;
5880;SDS011;2966;52.598;10.928;2022-12-18T06:25:56;18.60;;;12.00;;
5880;SDS011;2966;52.598;10.928;2022-12-18T06:28:23;15.67;;;13.67;;
5880;SDS011;2966;52.598;10.928;2022-12-18T06:30:51;15.97;;;11.30;;
5880;SDS011;2966;52.598;10.928;2022-12-18T06:33:18;16.23;;;8.67;;
5880;SDS011;2966;52.598;10.928;2022-12-18T06:35:47;20.20;;;9.50;;
5880;SDS011;2966;52.598;10.928;2022-12-18T06:38:14;26.13;;;11.73;;
5880;SDS011;2966;52.598;10.928;2022-12-18T06:40:42;16.50;;;8.93;;
5880;SDS011;2966;52.598;10.928;2022-12-18T06:43:10;14.20;;;10.63;;
5880;SDS011;2966;52.598;10.928;2022-12-18T06:45:37;9.87;;;7.50;;
5880;SDS011;2966;52.598;10.928;2022-12-18T06:48:04;12.33;;;6.53;;
5880;SDS011;2966;52.598;10.928;2022-12-18T06:50:33;24.63;;;11.50;;
5880;SDS011;2966;52.598;10.928;2022-12-18T06:53:02;18.53;;;8.90;;
5880;SDS011;2966;52.598;10.928;2022-12-18T06:55:29;5.47;;;5.03;;
5880;SDS011;2966;52.598;10.928;2022-12-18T06:57:56;12.07;;;9.80;;
5880;SDS011;2966;52.598;10.928;2022-12-18T07:00:23;11.00;;;9.87;;
5880;SDS011;2966;52.598;10.928;2022-12-18T07:02:50;19.87;;;12.17;;
5880;SDS011;2966;52.598;10.928;2022-12-18T07:05:16;18.70;;;7.47;;
5880;SDS011;2966;52.598;10.928;2022-12-18T07:07:43;18.50;;;14.43;;
5880;SDS011;2966;52.598;10.928;2022-12-18T07:10:11;14.23;;;8.33;;
5880;SDS011;2966;52.598;10.928;2022-12-18T07:12:38;19.00;;;10.57;;
5880;SDS011;2966;52.598;10.928;2022-12-18T07:15:06;32.80;;;13.40;;
5880;SDS011;2966;52.598;10.928;2022-12-18T07:17:34;16.20;;;8.47;;
5880;SDS011;2966;52.598;10.928;2022-12-18T07:20:02;12.63;;;8.67;;
5880;SDS011;2966;52.598;10.928;2022-12-18T07:22:29;14.40;;;9.83;;
5880;SDS011;2966;52.598;10.928;2022-12-18T07:24:57;20.27;;;11.20;;
5880;SDS011;2966;52.598;10.928;2022-12-18T07:27:26;12.63;;;7.30;;
5880;SDS011;2966;52.598;10.928;2022-12-18T07:29:54;32.33;;;7.87;;
5880;SDS011;2966;52.598;10.928;2022-12-18T07:32:21;12.50;;;8.20;;
5880;SDS011;2966;52.598;10.928;2022-12-18T07:34:48;17.30;;;11.10;;
5880;SDS011;2966;52.598;10.928;2022-12-18T07:37:15;12.00;;;9.57;;
5880;SDS011;2966;52.598;10.928;2022-12-18T07:39:45;23.77;;;8.77;;
5880;SDS011;2966;52.598;10.928;2022-12-18T07:42:13;30.37;;;8.67;;
5880;SDS011;2966;52.598;10.928;2022-12-18T07:45:00;10.63;;;5.57;;
5880;SDS011;2966;52.598;10.928;2022-12-18T07:47:29;18.13;;;7.67;;
5880;SDS011;2966;52.598;10.928;2022-12-18T07:49:57;9.00;;;8.23;;
5880;SDS011;2966;52.598;10.928;2022-12-18T07:52:25;11.43;;;7.67;;
5880;SDS011;2966;52.598;10.928;2022-12-18T07:55:16;18.63;;;14.83;;
5880;SDS011;2966;52.598;10.928;2022-12-18T07:57:43;27.20;;;13.20;;
5880;SDS011;2966;52.598;10.928;2022-12-18T08:00:12;13.27;;;10.33;;
5880;SDS011;2966;52.598;10.928;2022-12-18T08:02:40;19.50;;;8.97;;
5880;SDS011;2966;52.598;10.928;2022-12-18T08:05:07;16.17;;;7.87;;
5880;SDS011;2966;52.598;10.928;2022-12-18T08:07:34;11.53;;;10.40;;
5880;SDS011;2966;52.598;10.928;2022-12-18T08:10:01;9.30;;;6.77;;
5880;SDS011;2966;52.598;10.928;2022-12-18T08:12:28;16.17;;;8.60;;
5880;SDS011;2966;52.598;10.928;2022-12-18T08:14:55;10.00;;;9.00;;
5880;SDS011;2966;52.598;10.928;2022-12-18T08:17:23;13.53;;;6.77;;
5880;SDS011;2966;52.598;10.928;2022-12-18T08:19:50;18.37;;;12.17;;
5880;SDS011;2966;52.598;10.928;2022-12-18T08:22:16;24.03;;;9.10;;
5880;SDS011;2966;52.598;10.928;2022-12-18T08:24:43;13.97;;;9.40;;
5880;SDS011;2966;52.598;10.928;2022-12-18T08:27:11;13.73;;;10.37;;
5880;SDS011;2966;52.598;10.928;2022-12-18T08:29:38;25.13;;;14.87;;
5880;SDS011;2966;52.598;10.928;2022-12-18T08:32:05;20.10;;;14.77;;
5880;SDS011;2966;52.598;10.928;2022-12-18T08:34:33;25.77;;;16.77;;
5880;SDS011;2966;52.598;10.928;2022-12-18T08:37:00;25.67;;;11.57;;
5880;SDS011;2966;52.598;10.928;2022-12-18T08:39:27;22.60;;;10.00;;
5880;SDS011;2966;52.598;10.928;2022-12-18T08:41:54;29.47;;;13.67;;
5880;SDS011;2966;52.598;10.928;2022-12-18T08:44:38;14.40;;;12.37;;
5880;SDS011;2966;52.598;10.928;2022-12-18T08:47:05;25.30;;;14.37;;
5880;SDS011;2966;52.598;10.928;2022-12-18T08:49:34;31.77;;;18.93;;
5880;SDS011;2966;52.598;10.928;2022-12-18T08:52:01;18.20;;;11.90;;
5880;SDS011;2966;52.598;10.928;2022-12-18T08:54:29;27.17;;;11.23;;
5880;SDS011;2966;52.598;10.928;2022-12-18T08:56:56;11.60;;;9.93;;
5880;SDS011;2966;52.598;10.928;2022-12-18T08:59:22;18.17;;;12.73;;
5880;SDS011;2966;52.598;10.928;2022-12-18T09:01:49;19.37;;;11.77;;
5880;SDS011;2966;52.598;10.928;2022-12-18T09:04:16;13.97;;;12.53;;
5880;SDS011;2966;52.598;10.928;2022-12-18T09:06:45;12.63;;;9.47;;
5880;SDS011;2966;52.598;10.928;2022-12-18T09:09:12;13.47;;;10.80;;
5880;SDS011;2966;52.598;10.928;2022-12-18T09:11:39;14.33;;;9.87;;
5880;SDS011;2966;52.598;10.928;2022-12-18T09:14:06;25.73;;;11.40;;
5880;SDS011;2966;52.598;10.928;2022-12-18T09:16:33;12.30;;;11.03;;
5880;SDS011;2966;52.598;10.928;2022-12-18T09:19:01;24.07;;;12.97;;
5880;SDS011;2966;52.598;10.928;2022-12-18T09:21:31;13.17;;;11.60;;
5880;SDS011;2966;52.598;10.928;2022-12-18T09:24:01;19.30;;;11.90;;
5880;SDS011;2966;52.598;10.928;2022-12-18T09:26:27;32.20;;;16.67;;
5880;SDS011;2966;52.598;10.928;2022-12-18T09:28:55;21.07;;;11.43;;
5880;SDS011;2966;52.598;10.928;2022-12-18T09:31:22;16.80;;;12.37;;
5880;SDS011;2966;52.598;10.928;2022-12-18T09:33:50;16.70;;;9.93;;
5880;SDS011;2966;52.598;10.928;2022-12-18T09:36:17;21.47;;;13.80;;
5880;SDS011;2966;52.598;10.928;2022-12-18T09:38:44;25.63;;;13.27;;
5880;SDS011;2966;52.598;10.928;2022-12-18T09:41:22;19.93;;;14.43;;
5880;SDS011;2966;52.598;10.928;2022-12-18T09:44:03;23.50;;;12.37;;
5880;SDS011;2966;52.598;10.928;2022-12-18T09:46:37;20.97;;;12.50;;
5880;SDS011;2966;52.598;10.928;2022-12-18T09:49:10;20.73;;;12.67;;
5880;SDS011;2966;52.598;10.928;2022-12-18T09:51:42;27.33;;;14.20;;
5880;SDS011;2966;52.598;10.928;2022-12-18T09:54:13;24.23;;;16.10;;
5880;SDS011;2966;52.598;10.928;2022-12-18T09:56:45;26.00;;;18.70;;
5880;SDS011;2966;52.598;10.928;2022-12-18T09:59:16;23.73;;;15.20;;
5880;SDS011;2966;52.598;10.928;2022-12-18T10:01:47;23.40;;;13.03;;
5880;SDS011;2966;52.598;10.928;2022-12-18T10:04:14;26.13;;;19.30;;
5880;SDS011;2966;52.598;10.928;2022-12-18T10:06:43;27.60;;;14.23;;
5880;SDS011;2966;52.598;10.928;2022-12-18T10:09:18;26.30;;;19.90;;
5880;SDS011;2966;52.598;10.928;2022-12-18T10:11:55;34.67;;;16.70;;
5880;SDS011;2966;52.598;10.928;2022-12-18T10:14:30;23.77;;;15.90;;
5880;SDS011;2966;52.598;10.928;2022-12-18T10:17:05;26.67;;;14.23;;
5880;SDS011;2966;52.598;10.928;2022-12-18T10:19:40;37.53;;;21.10;;
5880;SDS011;2966;52.598;10.928;2022-12-18T10:22:17;25.47;;;15.73;;
5880;SDS011;2966;52.598;10.928;2022-12-18T10:24:53;30.10;;;20.73;;
5880;SDS011;2966;52.598;10.928;2022-12-18T10:27:28;18.67;;;13.20;;
5880;SDS011;2966;52.598;10.928;2022-12-18T10:29:56;26.73;;;17.50;;
5880;SDS011;2966;52.598;10.928;2022-12-18T10:32:24;26.30;;;18.27;;
5880;SDS011;2966;52.598;10.928;2022-12-18T10:34:53;38.37;;;18.30;;
5880;SDS011;2966;52.598;10.928;2022-12-18T10:37:22;35.93;;;22.87;;
5880;SDS011;2966;52.598;10.928;2022-12-18T10:40:04;27.07;;;18.33;;
5880;SDS011;2966;52.598;10.928;2022-12-18T10:42:36;35.43;;;19.07;;
5880;SDS011;2966;52.598;10.928;2022-12-18T10:45:05;21.70;;;18.13;;
5880;SDS011;2966;52.598;10.928;2022-12-18T10:47:35;37.33;;;18.70;;
5880;SDS011;2966;52.598;10.928;2022-12-18T10:50:11;26.37;;;17.90;;
5880;SDS011;2966;52.598;10.928;2022-12-18T10:52:52;29.90;;;18.10;;
5880;SDS011;2966;52.598;10.928;2022-12-18T10:55:21;24.93;;;18.30;;
5880;SDS011;2966;52.598;10.928;2022-12-18T10:57:49;45.00;;;23.60;;
5880;SDS011;2966;52.598;10.928;2022-12-18T11:00:24;23.30;;;17.17;;
5880;SDS011;2966;52.598;10.928;2022-12-18T11:02:53;31.40;;;20.10;;
5880;SDS011;2966;52.598;10.928;2022-12-18T11:05:25;34.67;;;18.87;;
5880;SDS011;2966;52.598;10.928;2022-12-18T11:07:54;24.73;;;19.07;;
5880;SDS011;2966;52.598;10.928;2022-12-18T11:10:25;36.83;;;19.83;;
5880;SDS011;2966;52.598;10.928;2022-12-18T11:12:56;28.67;;;16.53;;
5880;SDS011;2966;52.598;10.928;2022-12-18T11:15:39;39.00;;;14.77;;
5880;SDS011;2966;52.598;10.928;2022-12-18T11:18:14;30.57;;;16.73;;
5880;SDS011;2966;52.598;10.928;2022-12-18T11:20:44;31.73;;;17.13;;
5880;SDS011;2966;52.598;10.928;2022-12-18T11:23:17;28.87;;;19.00;;
5880;SDS011;2966;52.598;10.928;2022-12-18T11:25:51;34.10;;;20.80;;
5880;SDS011;2966;52.598;10.928;2022-12-18T11:31:23;21.43;;;14.67;;
5880;SDS011;2966;52.598;10.928;2022-12-18T11:33:57;38.83;;;19.30;;
5880;SDS011;2966;52.598;10.928;2022-12-18T11:36:28;26.57;;;17.63;;
5880;SDS011;2966;52.598;10.928;2022-12-18T11:38:59;19.83;;;13.77;;
5880;SDS011;2966;52.598;10.928;2022-12-18T11:41:32;26.53;;;16.30;;
5880;SDS011;2966;52.598;10.928;2022-12-18T11:44:24;19.13;;;13.77;;
5880;SDS011;2966;52.598;10.928;2022-12-18T11:46:55;26.13;;;17.70;;
5880;SDS011;2966;52.598;10.928;2022-12-18T11:49:27;42.20;;;15.00;;
5880;SDS011;2966;52.598;10.928;2022-12-18T11:52:00;20.20;;;16.03;;
5880;SDS011;2966;52.598;10.928;2022-12-18T11:54:31;31.33;;;21.67;;
5880;SDS011;2966;52.598;10.928;2022-12-18T11:56:58;28.43;;;20.53;;
5880;SDS011;2966;52.598;10.928;2022-12-18T11:59:33;30.70;;;16.97;;
5880;SDS011;2966;52.598;10.928;2022-12-18T12:02:11;20.50;;;15.90;;
5880;SDS011;2966;52.598;10.928;2022-12-18T12:05:00;33.43;;;18.97;;
5880;SDS011;2966;52.598;10.928;2022-12-18T12:07:41;29.67;;;18.73;;
5880;SDS011;2966;52.598;10.928;2022-12-18T12:10:19;27.23;;;18.27;;
5880;SDS011;2966;52.598;10.928;2022-12-18T12:13:05;21.57;;;15.93;;
5880;SDS011;2966;52.598;10.928;2022-12-18T12:15:46;27.07;;;16.30;;
5880;SDS011;2966;52.598;10.928;2022-12-18T12:18:24;48.90;;;19.10;;
5880;SDS011;2966;52.598;10.928;2022-12-18T12:21:02;37.10;;;22.50;;
5880;SDS011;2966;52.598;10.928;2022-12-18T12:23:34;62.90;;;31.37;;
5880;SDS011;2966;52.598;10.928;2022-12-18T12:26:08;39.17;;;24.97;;
5880;SDS011;2966;52.598;10.928;2022-12-18T12:28:48;36.10;;;23.37;;
5880;SDS011;2966;52.598;10.928;2022-12-18T12:31:31;41.57;;;21.90;;
5880;SDS011;2966;52.598;10.928;2022-12-18T12:34:08;26.90;;;17.67;;
5880;SDS011;2966;52.598;10.928;2022-12-18T12:36:47;24.77;;;17.00;;
5880;SDS011;2966;52.598;10.928;2022-12-18T12:39:22;17.07;;;15.37;;
5880;SDS011;2966;52.598;10.928;2022-12-18T12:41:53;15.80;;;13.23;;
5880;SDS011;2966;52.598;10.928;2022-12-18T12:44:39;34.43;;;16.13;;
5880;SDS011;2966;52.598;10.928;2022-12-18T12:47:11;25.40;;;17.40;;
5880;SDS011;2966;52.598;10.928;2022-12-18T12:49:41;25.33;;;17.70;;
5880;SDS011;2966;52.598;10.928;2022-12-18T12:52:13;24.30;;;18.47;;
5880;SDS011;2966;52.598;10.928;2022-12-18T12:54:43;15.63;;;14.03;;
5880;SDS011;2966;52.598;10.928;2022-12-18T12:57:11;23.57;;;13.63;;
5880;SDS011;2966;52.598;10.928;2022-12-18T12:59:47;17.97;;;14.90;;
5880;SDS011;2966;52.598;10.928;2022-12-18T13:02:29;25.87;;;13.10;;
5880;SDS011;2966;52.598;10.928;2022-12-18T13:05:02;20.63;;;14.20;;
5880;SDS011;2966;52.598;10.928;2022-12-18T13:07:35;18.67;;;14.40;;
5880;SDS011;2966;52.598;10.928;2022-12-18T13:13:07;20.10;;;13.60;;
5880;SDS011;2966;52.598;10.928;2022-12-18T13:15:37;33.03;;;13.07;;
5880;SDS011;2966;52.598;10.928;2022-12-18T13:18:11;21.87;;;14.33;;
5880;SDS011;2966;52.598;10.928;2022-12-18T13:20:45;20.07;;;13.40;;
5880;SDS011;2966;52.598;10.928;2022-12-18T13:23:27;19.70;;;11.03;;
5880;SDS011;2966;52.598;10.928;2022-12-18T13:25:59;17.67;;;13.47;;
5880;SDS011;2966;52.598;10.928;2022-12-18T13:28:50;20.70;;;15.20;;
5880;SDS011;2966;52.598;10.928;2022-12-18T13:34:26;17.63;;;12.53;;
5880;SDS011;2966;52.598;10.928;2022-12-18T13:36:54;22.47;;;13.00;;
5880;SDS011;2966;52.598;10.928;2022-12-18T13:39:26;15.80;;;13.30;;
5880;SDS011;2966;52.598;10.928;2022-12-18T13:45:39;22.87;;;14.30;;
5880;SDS011;2966;52.598;10.928;2022-12-18T13:48:19;19.73;;;13.97;;
5880;SDS011;2966;52.598;10.928;2022-12-18T13:50:52;20.90;;;13.37;;
5880;SDS011;2966;52.598;10.928;2022-12-18T13:53:26;14.93;;;10.50;;
5880;SDS011;2966;52.598;10.928;2022-12-18T13:55:55;20.90;;;13.70;;
5880;SDS011;2966;52.598;10.928;2022-12-18T13:58:23;20.90;;;13.07;;
5880;SDS011;2966;52.598;10.928;2022-12-18T14:00:50;22.47;;;14.20;;
5880;SDS011;2966;52.598;10.928;2022-12-18T14:03:18;19.77;;;13.10;;
5880;SDS011;2966;52.598;10.928;2022-12-18T14:05:52;25.07;;;12.40;;
5880;SDS011;2966;52.598;10.928;2022-12-18T14:08:21;13.17;;;7.67;;
5880;SDS011;2966;52.598;10.928;2022-12-18T14:10:51;12.43;;;10.27;;
5880;SDS011;2966;52.598;10.928;2022-12-18T14:13:23;17.13;;;9.53;;
5880;SDS011;2966;52.598;10.928;2022-12-18T14:15:52;21.30;;;10.77;;
5880;SDS011;2966;52.598;10.928;2022-12-18T14:18:21;19.93;;;9.60;;
5880;SDS011;2966;52.598;10.928;2022-12-18T14:20:51;19.20;;;11.60;;
5880;SDS011;2966;52.598;10.928;2022-12-18T14:23:28;19.07;;;12.17;;
5880;SDS011;2966;52.598;10.928;2022-12-18T14:25:56;16.83;;;11.20;;
5880;SDS011;2966;52.598;10.928;2022-12-18T14:28:23;17.00;;;12.10;;
5880;SDS011;2966;52.598;10.928;2022-12-18T14:30:51;20.13;;;12.07;;
5880;SDS011;2966;52.598;10.928;2022-12-18T14:33:20;23.57;;;13.93;;
5880;SDS011;2966;52.598;10.928;2022-12-18T14:35:54;15.97;;;10.80;;
5880;SDS011;2966;52.598;10.928;2022-12-18T14:38:24;15.27;;;12.10;;
5880;SDS011;2966;52.598;10.928;2022-12-18T14:40:53;19.00;;;12.90;;
5880;SDS011;2966;52.598;10.928;2022-12-18T14:43:22;19.03;;;10.67;;
5880;SDS011;2966;52.598;10.928;2022-12-18T14:45:49;19.57;;;13.50;;
5880;SDS011;2966;52.598;10.928;2022-12-18T14:48:17;16.63;;;11.70;;
5880;SDS011;2966;52.598;10.928;2022-12-18T14:50:55;14.30;;;12.20;;
5880;SDS011;2966;52.598;10.928;2022-12-18T14:53:29;12.33;;;9.43;;
5880;SDS011;2966;52.598;10.928;2022-12-18T14:56:00;20.53;;;12.43;;
5880;SDS011;2966;52.598;10.928;2022-12-18T14:58:27;16.80;;;10.10;;
5880;SDS011;2966;52.598;10.928;2022-12-18T15:00:54;26.23;;;10.73;;
5880;SDS011;2966;52.598;10.928;2022-12-18T15:03:21;23.83;;;14.40;;
5880;SDS011;2966;52.598;10.928;2022-12-18T15:05:48;15.10;;;10.53;;
5880;SDS011;2966;52.598;10.928;2022-12-18T15:08:29;16.47;;;10.20;;
5880;SDS011;2966;52.598;10.928;2022-12-18T15:11:00;19.13;;;13.07;;